SAST,Max TemperatureF,Mean TemperatureF,Min TemperatureF,Max Dew PointF,MeanDew PointF,Min DewpointF,Max Humidity, Mean Humidity, Min Humidity, Max Sea Level PressureIn, Mean Sea Level PressureIn, Min Sea Level PressureIn, Max VisibilityMiles, Mean VisibilityMiles, Min VisibilityMiles, Max Wind SpeedMPH, Mean Wind SpeedMPH, Max Gust SpeedMPH,PrecipitationIn, CloudCover, Events, WindDirDegrees
2013-9-1,63,54,46,48,41,37,87,65,36,30.20,30.15,30.09,12,7,6,21,13,,0.00,3,,287
2013-9-2,77,59,41,50,42,37,93,64,27,30.15,30.00,29.89,12,12,12,9,4,,0.00,,,24
2013-9-3,62,53,44,50,44,39,88,73,51,30.34,30.19,30.01,12,8,5,20,9,,0.02,4,Rain,287
2013-9-4,61,51,41,46,42,37,87,70,49,30.39,30.33,30.27,12,8,6,15,5,,0.00,2,,287
2013-9-5,66,55,44,52,46,39,94,70,34,30.38,30.26,30.18,12,10,6,13,6,,0.00,1,,280
2013-9-6,67,58,48,54,49,44,94,75,48,30.25,30.20,30.12,12,8,6,10,7,,0.00,1,,302
2013-9-7,73,60,46,57,53,45,94,79,50,30.09,29.95,29.83,12,8,3,10,5,,0.00,7,Fog,228
2013-9-8,68,60,53,55,51,46,94,77,46,30.06,29.96,29.92,12,7,0,20,9,,0.02,6,Rain,278
2013-9-9,56,52,48,48,44,41,94,74,46,30.25,30.17,30.06,12,7,6,15,9,,0.02,6,Rain,275
2013-9-10,59,52,46,45,42,37,82,70,45,30.24,30.19,30.15,19,9,6,17,8,,0.00,4,,275
2013-9-11,59,52,44,43,40,34,87,63,37,30.29,30.23,30.21,19,8,6,12,8,,0.00,2,,277
2013-9-12,62,52,41,48,42,36,87,69,42,30.18,30.05,29.98,19,9,6,12,5,,0.00,1,,56
2013-9-13,61,51,41,49,45,37,87,75,55,29.99,29.90,29.80,19,8,6,10,6,,0.00,2,,285
2013-9-14,63,54,45,48,43,36,87,61,34,29.99,29.91,29.80,12,8,6,21,9,,0.00,6,,253
2013-9-15,75,60,44,54,45,41,87,63,22,30.06,29.87,29.74,19,8,6,33,11,45,0.00,4,,288
2013-9-16,70,57,44,50,46,41,87,66,37,30.15,30.08,30.01,12,8,6,12,5,,0.00,2,,21
2013-9-17,73,60,48,54,49,45,88,66,38,30.09,30.03,29.95,12,9,6,12,5,,0.00,2,,101
2013-9-18,64,59,54,55,52,50,94,80,57,30.09,30.00,29.89,12,7,6,10,5,,0.00,6,,187
2013-9-19,65,55,45,52,49,45,94,77,48,29.83,29.67,29.53,12,8,3,15,6,,0.08,4,,232
2013-9-20,57,50,42,46,40,34,93,67,38,30.12,29.86,29.68,19,7,4,26,15,33,0.00,5,Rain,275
2013-9-21,62,52,41,43,37,32,87,57,25,30.41,30.30,30.15,19,7,2,81,13,,0.00,3,,284
2013-9-22,63,52,42,48,44,37,87,71,43,30.40,30.26,30.12,12,11,6,12,5,,0.00,1,,44
2013-9-23,71,57,43,57,48,41,87,74,38,30.09,29.99,29.89,12,9,6,17,6,,0.00,5,,268
2013-9-24,64,56,49,50,47,45,82,67,44,30.10,30.07,30.04,12,8,6,15,7,,0.00,5,,259
2013-9-25,66,56,46,52,49,43,93,74,49,30.09,30.05,29.98,12,8,6,12,5,,0.00,4,,251
2013-9-26,74,61,48,55,51,46,94,72,40,30.06,29.91,29.74,12,11,6,12,5,,0.00,1,,40
2013-9-27,66,58,48,52,44,35,88,56,33,30.01,29.81,29.65,19,8,6,29,16,40,0.00,5,,271
2013-9-28,61,52,42,45,38,30,82,58,31,30.36,30.16,30.01,12,7,6,29,15,,0.01,5,Rain,268
2013-9-29,62,53,44,45,41,37,82,62,32,30.47,30.42,30.36,19,8,6,13,9,,0.00,2,,291
2013-9-30,75,60,46,52,43,37,76,50,20,30.42,30.23,30.04,19,14,12,13,8,,0.00,,,79